Time;durP1;ratioP1;P1;durP2;ratioP2;P2;SDS_P1;SDS_P2;PMS_P1;PMS_P2;Temp;Humidity;BMP_temperature;BMP_pressure;BME280_temperature;BME280_humidity;BME280_pressure;Samples;Min_cycle;Max_cycle;Signal;HPM_P1;HPM_P2
2022/10/07 00:01:06;;;;;;;4.93;2.35;;;;;;;15.28;43.06;100611.72;5092766;28;20123;-82
2022/10/07 00:03:33;;;;;;;3.92;2.30;;;;;;;15.47;43.40;100603.19;5092819;28;20461;-81
2022/10/07 00:05:59;;;;;;;5.45;2.30;;;;;;;14.74;43.54;100497.56;5091428;28;20588;-81
2022/10/07 00:08:24;;;;;;;6.60;2.60;;;;;;;15.47;43.18;100610.38;5092622;28;20035;-81
2022/10/07 00:10:50;;;;;;;3.05;2.22;;;;;;;15.19;43.20;100548.97;5091130;28;20424;-82
2022/10/07 00:13:16;;;;;;;6.22;2.80;;;;;;;14.98;43.05;100511.66;5092288;28;20077;-81
2022/10/07 00:15:41;;;;;;;4.03;2.28;;;;;;;15.26;43.02;100576.50;5091144;28;20412;-81
2022/10/07 00:18:07;;;;;;;6.80;2.63;;;;;;;14.70;43.14;100495.47;5091248;28;20028;-82
2022/10/07 00:20:38;;;;;;;6.88;3.03;;;;;;;15.15;43.46;100563.66;5092589;28;20028;-82
2022/10/07 00:23:03;;;;;;;4.55;3.25;;;;;;;14.90;43.54;100529.34;5092452;28;20474;-82
2022/10/07 00:25:29;;;;;;;3.22;2.90;;;;;;;15.05;43.92;100561.25;5092316;28;20020;-82
2022/10/07 00:27:54;;;;;;;3.08;2.80;;;;;;;14.48;44.18;100475.91;5092356;28;20051;-81
2022/10/07 00:30:20;;;;;;;4.05;2.95;;;;;;;15.30;43.73;100596.41;5091031;28;20115;-82
2022/10/07 00:32:45;;;;;;;6.97;2.80;;;;;;;15.24;43.70;100584.66;5092456;28;20103;-81
2022/10/07 00:35:11;;;;;;;4.55;3.13;;;;;;;15.39;43.56;100610.47;5092494;28;20447;-81
2022/10/07 00:37:41;;;;;;;5.90;2.55;;;;;;;14.66;43.96;100483.53;5092095;28;20408;-81
2022/10/07 00:40:08;;;;;;;4.32;2.67;;;;;;;15.14;44.10;100569.97;5092130;28;20558;-81
2022/10/07 00:42:34;;;;;;;4.78;2.85;;;;;;;15.00;44.18;100536.22;5092205;28;20020;-81
2022/10/07 00:45:00;;;;;;;4.78;2.90;;;;;;;14.69;43.90;100472.53;5092116;28;20077;-82
2022/10/07 00:47:33;;;;;;;5.65;2.80;;;;;;;15.01;43.76;100532.56;5091980;28;20020;-81
2022/10/07 00:50:07;;;;;;;6.47;3.15;;;;;;;15.23;43.68;100559.06;5092036;28;20028;-81
2022/10/07 00:52:40;;;;;;;4.47;3.00;;;;;;;13.80;44.09;100320.13;5090428;28;20088;-82
2022/10/07 00:55:11;;;;;;;2.97;2.67;;;;;;;14.61;44.00;100450.34;5091800;28;20031;-81
2022/10/07 00:57:38;;;;;;;4.30;3.03;;;;;;;14.65;44.03;100500.50;5091871;28;20062;-81
2022/10/07 01:00:05;;;;;;;5.70;2.83;;;;;;;15.10;44.07;100528.81;5090956;28;20027;-81
2022/10/07 01:02:32;;;;;;;4.28;2.90;;;;;;;14.77;44.07;100481.25;5091414;28;20035;-82
2022/10/07 01:05:00;;;;;;;7.68;3.20;;;;;;;14.83;44.35;100482.34;5091572;28;20111;-81
2022/10/07 01:07:27;;;;;;;4.47;2.90;;;;;;;14.72;44.62;100464.19;5091712;28;20028;-82
2022/10/07 01:09:54;;;;;;;6.22;3.15;;;;;;;15.17;44.43;100533.19;5090406;28;20024;-82
2022/10/07 01:12:53;;;;;;;4.53;3.00;;;;;;;15.40;44.84;100556.22;5091874;28;20136;-81
2022/10/07 01:15:27;;;;;;;4.40;3.40;;;;;;;15.40;44.92;100559.72;5091820;28;20020;-82
2022/10/07 01:18:00;;;;;;;5.95;3.17;;;;;;;15.14;45.19;100516.78;5090439;28;20115;-82
2022/10/07 01:20:35;;;;;;;3.40;3.10;;;;;;;15.52;45.40;100560.06;5091462;28;20024;-81
2022/10/07 01:23:18;;;;;;;5.00;3.08;;;;;;;15.52;45.78;100566.22;5091217;28;20056;-81
2022/10/07 01:26:15;;;;;;;6.32;3.47;;;;;;;15.31;45.50;100525.41;5090064;28;20111;-81
2022/10/07 01:29:02;;;;;;;6.90;2.70;;;;;;;15.66;45.53;100567.28;5089975;28;20061;-81
2022/10/07 01:31:36;;;;;;;3.65;2.90;;;;;;;15.06;45.79;100458.38;5090081;28;20035;-82
2022/10/07 01:34:05;;;;;;;5.82;3.63;;;;;;;15.75;45.56;100562.66;5091436;28;20561;-81
2022/10/07 01:36:35;;;;;;;5.95;3.28;;;;;;;15.16;45.59;100465.03;5091451;28;20020;-81
2022/10/07 01:39:06;;;;;;;5.47;3.17;;;;;;;15.85;45.51;100560.53;5091217;28;20027;-81
2022/10/07 01:41:35;;;;;;;4.75;2.83;;;;;;;15.25;45.56;100455.13;5091197;28;20024;-81
2022/10/07 01:44:02;;;;;;;5.10;3.20;;;;;;;15.31;45.99;100457.03;5091868;28;20028;-81
2022/10/07 01:46:29;;;;;;;4.95;3.33;;;;;;;15.82;45.84;100539.59;5091667;28;20031;-82
2022/10/07 01:48:55;;;;;;;4.85;3.42;;;;;;;15.57;45.63;100478.66;5091613;28;20058;-82
2022/10/07 01:51:26;;;;;;;4.28;3.03;;;;;;;15.19;45.71;100423.94;5091935;28;20024;-81
2022/10/07 01:54:23;;;;;;;3.57;2.90;;;;;;;16.10;46.34;100561.81;5095313;28;20039;-81
2022/10/07 01:56:51;;;;;;;3.97;2.95;;;;;;;16.08;46.11;100552.38;5093817;28;20089;-82
2022/10/07 01:59:41;;;;;;;3.83;2.83;;;;;;;16.10;46.56;100566.34;5095257;28;20047;-81
2022/10/07 02:02:23;;;;;;;3.10;2.80;;;;;;;16.11;46.25;100562.66;5094906;28;20071;-81
2022/10/07 02:05:08;;;;;;;4.22;2.72;;;;;;;15.58;46.53;100480.31;5093707;28;20475;-81
2022/10/07 02:07:42;;;;;;;5.97;3.30;;;;;;;16.07;46.70;100558.72;5093818;28;20519;-82
2022/10/07 02:10:35;;;;;;;3.50;2.97;;;;;;;16.01;46.98;100560.31;5095008;28;20066;-81
2022/10/07 02:13:03;;;;;;;3.60;2.92;;;;;;;16.02;46.79;100561.13;5094663;28;20049;-81
2022/10/07 02:15:39;;;;;;;4.93;3.35;;;;;;;16.07;46.88;100554.22;5093419;28;20028;-82
2022/10/07 02:18:07;;;;;;;6.85;3.30;;;;;;;16.09;46.84;100554.84;5095016;28;20028;-81
2022/10/07 02:20:37;;;;;;;4.65;3.20;;;;;;;15.45;46.60;100452.69;5094732;28;20031;-81
2022/10/07 02:23:07;;;;;;;4.78;3.17;;;;;;;15.95;47.19;100536.25;5094615;28;20024;-82
2022/10/07 02:25:39;;;;;;;3.67;2.92;;;;;;;15.81;47.33;100535.28;5094522;28;20024;-82
2022/10/07 02:28:06;;;;;;;3.15;2.70;;;;;;;15.71;47.30;100511.63;5094852;28;20031;-82
2022/10/07 02:30:34;;;;;;;5.80;2.88;;;;;;;15.14;47.13;100411.22;5094457;28;20531;-81
2022/10/07 02:33:04;;;;;;;3.47;2.95;;;;;;;15.97;47.08;100536.88;5094228;28;20020;-81
2022/10/07 02:35:48;;;;;;;7.97;3.45;;;;;;;16.13;47.48;100560.63;5092809;28;20024;-81
2022/10/07 02:38:16;;;;;;;3.75;2.83;;;;;;;16.04;47.61;100548.44;5094104;28;20027;-81
2022/10/07 02:41:10;;;;;;;3.15;2.78;;;;;;;16.10;47.65;100561.00;5093046;28;20495;-82
2022/10/07 02:43:45;;;;;;;2.90;2.60;;;;;;;15.49;47.70;100456.63;5094514;28;20031;-82
2022/10/07 02:46:29;;;;;;;5.45;2.80;;;;;;;15.91;48.03;100530.47;5093037;28;20038;-82
2022/10/07 02:48:58;;;;;;;3.28;2.53;;;;;;;15.83;47.77;100515.44;5094006;28;20024;-81
2022/10/07 02:51:34;;;;;;;2.53;2.28;;;;;;;16.10;48.07;100564.50;5094074;28;20063;-81
2022/10/07 02:54:02;;;;;;;4.03;3.13;;;;;;;16.13;47.93;100564.13;5094129;28;20028;-82
2022/10/07 02:56:30;;;;;;;2.95;2.50;;;;;;;15.93;47.89;100530.28;5094089;28;20024;-81
2022/10/07 02:58:58;;;;;;;10.75;3.45;;;;;;;15.57;47.94;100470.69;5094068;28;20020;-82
2022/10/07 03:01:29;;;;;;;4.78;2.30;;;;;;;15.26;47.74;100440.81;5093704;28;20055;-81
2022/10/07 03:03:56;;;;;;;4.15;2.63;;;;;;;15.71;47.76;100508.13;5092519;28;20020;-81
2022/10/07 03:06:23;;;;;;;3.85;2.55;;;;;;;15.71;47.62;100516.13;5092304;28;20016;-82
2022/10/07 03:08:49;;;;;;;3.10;2.50;;;;;;;15.38;47.24;100462.44;5093691;28;20086;-81
2022/10/07 03:11:15;;;;;;;7.95;2.70;;;;;;;15.19;47.37;100415.97;5094064;28;20024;-81
2022/10/07 03:13:40;;;;;;;3.90;2.50;;;;;;;15.25;47.63;100442.66;5093983;28;20492;-81
2022/10/07 03:16:05;;;;;;;2.92;2.47;;;;;;;15.79;47.30;100524.00;5093682;28;20103;-81
2022/10/07 03:18:31;;;;;;;5.47;2.78;;;;;;;14.20;47.26;100265.81;5092361;28;20081;-82
2022/10/07 03:20:59;;;;;;;3.53;2.83;;;;;;;15.97;47.33;100552.88;5093931;28;20024;-82
2022/10/07 03:23:27;;;;;;;3.92;2.67;;;;;;;16.12;47.26;100573.13;5093599;28;20043;-81
2022/10/07 03:25:55;;;;;;;3.63;2.90;;;;;;;16.12;47.08;100572.28;5093487;28;20074;-81
2022/10/07 03:28:24;;;;;;;4.53;2.70;;;;;;;16.07;47.37;100572.88;5091867;28;20028;-81
2022/10/07 03:30:50;;;;;;;4.38;2.67;;;;;;;15.54;47.36;100496.81;5092114;28;20420;-81
2022/10/07 03:33:16;;;;;;;4.53;2.88;;;;;;;15.11;47.03;100414.25;5092220;28;20024;-81
2022/10/07 03:35:42;;;;;;;6.40;2.70;;;;;;;16.02;47.42;100577.09;5093421;28;20161;-82
2022/10/07 03:38:09;;;;;;;3.78;3.05;;;;;;;15.99;47.15;100574.81;5093204;28;20103;-81
2022/10/07 03:40:35;;;;;;;3.88;2.53;;;;;;;15.34;47.23;100483.28;5093528;28;20020;-81
2022/10/07 03:43:01;;;;;;;4.20;2.50;;;;;;;14.30;47.33;100327.44;5093439;28;20027;-81
2022/10/07 03:45:29;;;;;;;6.00;2.47;;;;;;;15.48;46.97;100521.53;5093253;28;20028;-81
2022/10/07 03:47:55;;;;;;;3.78;2.30;;;;;;;15.36;47.17;100499.06;5093196;28;20478;-81
2022/10/07 03:50:20;;;;;;;3.85;2.60;;;;;;;14.50;47.26;100380.88;5093352;28;20028;-81
2022/10/07 03:52:46;;;;;;;4.80;2.88;;;;;;;15.26;47.13;100529.44;5093082;28;20089;-82
2022/10/07 03:55:11;;;;;;;7.43;2.92;;;;;;;14.73;47.27;100447.25;5114938;28;20023;-80
2022/10/07 03:57:48;;;;;;;5.72;2.80;;;;;;;15.03;47.12;100496.78;5117903;28;20039;-81
2022/10/07 04:00:15;;;;;;;6.20;2.40;;;;;;;14.95;46.90;100478.28;5100140;28;20598;-82
2022/10/07 04:02:40;;;;;;;4.00;2.80;;;;;;;14.45;47.01;100388.59;5092039;28;20058;-82
2022/10/07 04:05:06;;;;;;;4.40;2.78;;;;;;;14.97;46.71;100478.91;5093034;28;20497;-81
2022/10/07 04:07:32;;;;;;;5.07;2.83;;;;;;;15.25;46.88;100525.13;5093081;28;20030;-81
2022/10/07 04:09:57;;;;;;;4.35;2.72;;;;;;;15.41;47.02;100545.38;5091231;28;20024;-82
2022/10/07 04:12:23;;;;;;;6.75;2.65;;;;;;;14.93;47.06;100485.59;5091071;28;20089;-81
2022/10/07 04:14:49;;;;;;;6.03;2.97;;;;;;;15.00;46.76;100499.00;5092064;28;20401;-82
2022/10/07 04:17:17;;;;;;;7.07;2.97;;;;;;;14.70;46.75;100442.28;5091171;28;20032;-82
2022/10/07 04:19:43;;;;;;;8.07;3.30;;;;;;;15.13;46.42;100517.78;5092518;28;20058;-82
2022/10/07 04:22:09;;;;;;;5.80;3.22;;;;;;;14.87;46.11;100481.03;5091244;28;20024;-82
2022/10/07 04:24:35;;;;;;;4.95;3.15;;;;;;;15.64;46.13;100585.25;5092609;28;20055;-82
2022/10/07 04:27:03;;;;;;;7.30;3.15;;;;;;;14.99;46.29;100487.53;5097042;28;20016;-82
2022/10/07 04:29:29;;;;;;;6.13;3.05;;;;;;;14.99;45.85;100500.81;5098164;28;20038;-82
2022/10/07 04:31:57;;;;;;;8.25;3.13;;;;;;;14.99;45.82;100500.81;5093524;28;20028;-82
2022/10/07 04:34:23;;;;;;;5.35;2.90;;;;;;;15.25;45.93;100535.78;5092281;28;20016;-81
2022/10/07 04:36:50;;;;;;;4.68;3.40;;;;;;;14.99;45.83;100507.97;5090721;28;20412;-82
2022/10/07 04:39:16;;;;;;;6.25;3.50;;;;;;;15.06;45.80;100516.88;5092141;28;20020;-81
2022/10/07 04:41:41;;;;;;;8.35;3.92;;;;;;;15.03;45.78;100502.09;5092024;28;20020;-81
2022/10/07 04:44:07;;;;;;;7.47;3.10;;;;;;;14.82;45.62;100475.38;5092391;28;20493;-81
2022/10/07 04:46:32;;;;;;;5.82;3.20;;;;;;;14.83;45.78;100485.84;5092085;28;20081;-81
2022/10/07 04:48:58;;;;;;;6.88;3.67;;;;;;;15.48;45.57;100577.41;5091894;28;20036;-81
2022/10/07 04:51:23;;;;;;;8.02;4.15;;;;;;;14.69;45.65;100454.75;5090534;28;20027;-82
2022/10/07 04:53:51;;;;;;;7.20;3.70;;;;;;;15.51;45.51;100583.19;5091682;28;20099;-81
2022/10/07 04:56:18;;;;;;;6.90;4.15;;;;;;;15.06;45.34;100549.63;5090399;28;20055;-82
2022/10/07 04:58:43;;;;;;;7.07;3.22;;;;;;;15.00;45.52;100521.09;5091904;28;20020;-81
2022/10/07 05:01:09;;;;;;;7.35;3.70;;;;;;;15.05;45.10;100520.53;5091611;28;20058;-81
2022/10/07 05:03:39;;;;;;;6.53;3.53;;;;;;;15.59;45.27;100592.94;5091723;28;20031;-81
2022/10/07 05:06:07;;;;;;;6.03;3.58;;;;;;;15.20;44.97;100530.19;5090426;28;20513;-81
2022/10/07 05:08:32;;;;;;;6.53;3.60;;;;;;;15.57;45.39;100582.47;5091856;28;20020;-81
2022/10/07 05:10:59;;;;;;;5.78;3.70;;;;;;;15.68;44.87;100591.88;5090535;28;20490;-81
2022/10/07 05:13:26;;;;;;;4.85;3.47;;;;;;;15.53;44.98;100557.22;5091793;28;20035;-81
2022/10/07 05:15:56;;;;;;;6.30;3.72;;;;;;;15.73;44.78;100592.13;5091919;28;20035;-81
2022/10/07 05:18:25;;;;;;;9.13;3.60;;;;;;;15.33;45.14;100524.19;5091233;28;20059;-81
2022/10/07 05:20:51;;;;;;;10.10;3.30;;;;;;;15.41;45.06;100548.06;5091887;28;20035;-81
2022/10/07 05:23:18;;;;;;;4.78;3.60;;;;;;;15.44;45.00;100550.34;5090299;28;20024;-81
2022/10/07 05:25:44;;;;;;;5.03;3.17;;;;;;;15.53;44.64;100546.56;5091168;28;20038;-81
2022/10/07 05:28:11;;;;;;;8.82;3.33;;;;;;;15.31;44.43;100514.75;5090183;28;20181;-81
2022/10/07 05:30:37;;;;;;;7.45;3.63;;;;;;;14.95;44.28;100451.69;5091830;28;20112;-82
2022/10/07 05:33:03;;;;;;;7.75;3.10;;;;;;;15.56;44.16;100534.72;5091465;28;20047;-81
2022/10/07 05:35:30;;;;;;;5.47;3.15;;;;;;;15.22;43.96;100488.25;5091440;28;20027;-81
2022/10/07 05:37:55;;;;;;;3.00;2.70;;;;;;;15.44;43.91;100510.44;5091359;28;20111;-81
2022/10/07 05:40:21;;;;;;;6.20;3.40;;;;;;;15.65;43.90;100552.31;5091199;28;20032;-81
2022/10/07 05:42:46;;;;;;;4.90;3.45;;;;;;;15.79;43.68;100555.94;5091309;28;20055;-81
2022/10/07 05:45:12;;;;;;;5.30;3.22;;;;;;;15.77;43.54;100556.13;5091316;28;20028;-81
2022/10/07 05:47:37;;;;;;;6.88;3.35;;;;;;;15.96;43.72;100567.22;5091186;28;20393;-81
2022/10/07 05:50:03;;;;;;;6.32;4.00;;;;;;;16.08;43.52;100589.66;5091135;28;20483;-81
2022/10/07 05:52:29;;;;;;;6.65;3.65;;;;;;;15.93;42.90;100568.41;5091421;28;20028;-81
2022/10/07 05:54:56;;;;;;;6.03;3.20;;;;;;;16.22;43.14;100626.09;5090224;28;20043;-82
2022/10/07 05:57:21;;;;;;;4.47;3.10;;;;;;;16.10;42.94;100585.81;5090035;28;20077;-82
2022/10/07 05:59:47;;;;;;;7.47;4.45;;;;;;;16.31;42.94;100598.31;5091351;28;20024;-82
2022/10/07 06:02:15;;;;;;;5.53;2.97;;;;;;;16.43;42.27;100620.81;5091104;28;20087;-81
2022/10/07 06:04:42;;;;;;;5.65;3.22;;;;;;;16.44;42.04;100617.16;5079859;28;20031;-81
2022/10/07 06:07:10;;;;;;;7.13;3.47;;;;;;;16.52;42.15;100626.84;5082117;28;21901;-81
2022/10/07 06:15:05;;;;;;;4.38;2.60;;;;;;;16.38;41.60;100607.25;5077924;28;20420;-81
2022/10/07 06:17:30;;;;;;;6.28;3.17;;;;;;;15.71;41.48;100484.16;5070914;28;20107;-81
2022/10/07 06:19:56;;;;;;;4.75;3.13;;;;;;;15.93;41.58;100519.63;5087950;28;20030;-81
2022/10/07 06:22:21;;;;;;;6.07;2.95;;;;;;;16.17;41.43;100556.56;5089808;28;20035;-81
2022/10/07 06:24:47;;;;;;;4.55;2.50;;;;;;;16.31;41.19;100594.84;5091081;28;20024;-81
2022/10/07 06:27:12;;;;;;;7.57;3.05;;;;;;;16.60;41.19;100621.41;5091006;28;20550;-81
2022/10/07 06:29:38;;;;;;;5.28;3.15;;;;;;;16.28;40.96;100568.56;5090960;28;20059;-81
2022/10/07 06:32:04;;;;;;;7.72;3.35;;;;;;;16.06;40.91;100530.44;5091044;28;20059;-81
2022/10/07 06:34:30;;;;;;;6.75;3.60;;;;;;;15.87;41.04;100498.06;5090937;28;20028;-81
2022/10/07 06:36:55;;;;;;;7.03;3.88;;;;;;;16.73;41.26;100639.41;5089872;28;20466;-82
2022/10/07 06:39:20;;;;;;;6.55;3.55;;;;;;;16.21;41.03;100528.53;5094141;28;20024;-81
2022/10/07 06:41:46;;;;;;;6.95;4.20;;;;;;;16.87;41.25;100627.00;5094294;28;20035;-81
2022/10/07 06:44:11;;;;;;;8.27;4.03;;;;;;;16.41;41.21;100553.56;5093921;28;20024;-81
2022/10/07 06:46:37;;;;;;;4.03;3.08;;;;;;;16.73;41.03;100608.22;5093906;28;20020;-80
2022/10/07 06:49:02;;;;;;;6.40;3.90;;;;;;;16.57;40.87;100575.63;5093556;28;20503;-82
2022/10/07 06:51:28;;;;;;;7.07;3.92;;;;;;;16.55;40.78;100567.00;5073731;28;20036;-81
2022/10/07 06:53:56;;;;;;;6.88;3.85;;;;;;;17.18;40.95;100642.66;5073309;28;20111;-82
2022/10/07 06:56:22;;;;;;;9.25;3.60;;;;;;;17.22;40.97;100636.75;5073414;28;20060;-82
2022/10/07 06:58:51;;;;;;;9.73;4.50;;;;;;;16.78;40.87;100563.13;5073189;28;20048;-82
2022/10/07 07:01:16;;;;;;;6.80;3.60;;;;;;;16.67;40.83;100544.16;5073424;28;20078;-82
2022/10/07 07:03:42;;;;;;;5.70;3.35;;;;;;;16.71;40.46;100519.56;5073414;28;20032;-82
2022/10/07 07:06:09;;;;;;;5.53;3.30;;;;;;;16.82;40.31;100518.22;5074124;28;20025;-81
2022/10/07 07:08:35;;;;;;;4.85;3.25;;;;;;;17.59;40.37;100646.22;5073824;28;20020;-82
2022/10/07 07:11:39;;;;;;;5.32;3.67;;;;;;;16.95;40.18;100544.97;5072499;28;20032;-81
2022/10/07 07:14:13;;;;;;;5.57;2.92;;;;;;;17.64;40.09;100630.44;5073637;28;20025;-82
2022/10/07 07:16:39;;;;;;;5.70;2.53;;;;;;;17.17;39.68;100534.25;5073446;28;20054;-80
2022/10/07 07:19:07;;;;;;;4.18;2.80;;;;;;;17.53;39.68;100593.59;5072109;28;20044;-82
2022/10/07 07:21:34;;;;;;;3.92;2.72;;;;;;;17.46;39.63;100563.38;5073666;28;20024;-81
2022/10/07 07:24:00;;;;;;;5.75;3.08;;;;;;;17.35;39.62;100529.22;5073890;28;20032;-82
2022/10/07 07:26:27;;;;;;;5.80;3.17;;;;;;;17.98;39.69;100640.31;5073668;28;20048;-82
2022/10/07 07:29:04;;;;;;;5.55;2.70;;;;;;;18.12;39.41;100627.00;5073788;28;20021;-81
2022/10/07 07:31:33;;;;;;;4.43;3.00;;;;;;;17.71;39.21;100559.19;5072227;28;20028;-80
2022/10/07 07:34:01;;;;;;;4.55;2.42;;;;;;;16.77;39.16;100395.28;5073465;28;20115;-82
2022/10/07 07:36:28;;;;;;;5.95;3.08;;;;;;;18.34;39.04;100601.75;5073458;28;20066;-81
2022/10/07 07:39:19;;;;;;;4.13;2.72;;;;;;;17.51;38.80;100504.03;5073378;28;20025;-81
2022/10/07 07:41:46;;;;;;;4.22;2.67;;;;;;;18.14;38.84;100542.91;5070660;28;20032;-81
2022/10/07 07:44:14;;;;;;;5.47;3.10;;;;;;;18.56;38.75;100613.09;5073237;28;20029;-81
2022/10/07 07:46:47;;;;;;;4.30;2.70;;;;;;;18.30;38.65;100560.41;5073222;28;20024;-81
2022/10/07 07:49:13;;;;;;;4.68;3.25;;;;;;;18.79;38.50;100604.75;5072480;28;20031;-81
2022/10/07 07:51:41;;;;;;;5.15;3.05;;;;;;;18.73;38.53;100595.69;5073135;28;20030;-80
2022/10/07 07:54:08;;;;;;;3.25;2.53;;;;;;;18.63;38.44;100566.66;5072485;28;20028;-82
2022/10/07 07:56:34;;;;;;;7.25;3.08;;;;;;;19.04;38.37;100603.91;5072435;28;20508;-82
2022/10/07 07:59:00;;;;;;;4.85;3.13;;;;;;;19.12;38.17;100599.38;5071834;28;20021;-80
2022/10/07 08:01:30;;;;;;;5.50;3.33;;;;;;;18.82;38.03;100532.91;5068779;28;20059;-82
2022/10/07 08:03:55;;;;;;;10.65;3.50;;;;;;;19.38;38.10;100596.66;5070558;28;20028;-80
2022/10/07 08:06:21;;;;;;;5.70;2.90;;;;;;;19.15;37.85;100561.47;5071517;28;20013;-80
2022/10/07 08:08:47;;;;;;;6.18;3.00;;;;;;;19.29;37.92;100577.28;5086714;28;20032;-80
2022/10/07 08:11:15;;;;;;;4.90;3.20;;;;;;;19.26;37.80;100569.69;5094675;28;20032;-81
2022/10/07 08:13:42;;;;;;;5.85;2.90;;;;;;;19.30;37.64;100586.97;5085809;28;20029;-81
2022/10/07 08:16:11;;;;;;;3.30;2.58;;;;;;;19.45;37.75;100592.13;5071696;28;20029;-81
2022/10/07 08:18:41;;;;;;;6.13;2.90;;;;;;;18.90;37.72;100503.25;5070159;28;20033;-80
2022/10/07 08:21:07;;;;;;;5.18;2.90;;;;;;;19.25;37.79;100564.53;5071951;28;20090;-80
2022/10/07 08:23:36;;;;;;;7.15;3.28;;;;;;;19.36;37.83;100580.00;5071357;28;20485;-81
2022/10/07 08:26:02;;;;;;;6.97;4.07;;;;;;;19.50;37.87;100589.63;5069579;28;20031;-81
2022/10/07 08:28:28;;;;;;;4.40;2.95;;;;;;;19.23;38.08;100545.19;5070690;28;20043;-81
2022/10/07 08:30:54;;;;;;;4.72;2.67;;;;;;;19.52;37.94;100592.94;5070520;28;20028;-81
2022/10/07 08:33:21;;;;;;;5.53;2.55;;;;;;;19.52;38.08;100579.56;5070694;28;20035;-81
2022/10/07 08:35:50;;;;;;;3.58;2.53;;;;;;;19.57;37.65;100581.59;5069667;28;20032;-81
2022/10/07 08:38:16;;;;;;;6.32;2.50;;;;;;;19.56;38.13;100569.25;5071250;28;20103;-81
2022/10/07 08:40:49;;;;;;;8.32;3.78;;;;;;;19.65;38.00;100571.47;5071826;28;20103;-80
2022/10/07 08:43:19;;;;;;;6.25;2.78;;;;;;;19.19;37.96;100466.31;5071522;28;20028;-81
2022/10/07 08:45:45;;;;;;;4.88;3.60;;;;;;;19.89;37.76;100571.78;5069113;28;20028;-81
2022/10/07 08:48:23;;;;;;;6.15;2.95;;;;;;;19.79;37.49;100547.28;5070655;28;20115;-80
2022/10/07 08:51:03;;;;;;;4.93;2.55;;;;;;;19.79;37.41;100521.31;5069719;28;20103;-80
2022/10/07 08:53:33;;;;;;;4.63;2.93;;;;;;;20.14;37.25;100561.97;5070647;28;20031;-80
2022/10/07 08:56:13;;;;;;;4.93;2.92;;;;;;;20.27;36.83;100551.16;5069306;28;20259;-80
2022/10/07 08:59:01;;;;;;;4.07;2.58;;;;;;;20.33;36.54;100554.84;5069682;28;20413;-81
2022/10/07 09:01:50;;;;;;;3.88;2.55;;;;;;;20.37;36.16;100544.50;5070001;28;20201;-81
2022/10/07 09:04:34;;;;;;;3.33;3.00;;;;;;;20.30;36.73;100528.44;5069845;28;20024;-80
2022/10/07 09:07:18;;;;;;;7.40;3.97;;;;;;;20.00;36.05;100461.19;5070997;28;20490;-81
2022/10/07 09:09:57;;;;;;;4.40;3.08;;;;;;;20.42;36.40;100532.09;5068267;28;20032;-82
2022/10/07 09:12:33;;;;;;;8.07;2.95;;;;;;;20.85;35.94;100536.72;5085962;28;20101;-82
2022/10/07 09:15:02;;;;;;;5.95;3.35;;;;;;;20.78;36.19;100504.53;5086586;28;20032;-81
2022/10/07 09:17:51;;;;;;;4.43;2.95;;;;;;;20.73;35.93;100476.72;5076043;28;20024;-81
2022/10/07 09:20:32;;;;;;;6.72;4.28;;;;;;;20.50;35.30;100437.94;5090258;28;20066;-80
2022/10/07 09:22:59;;;;;;;5.38;3.22;;;;;;;21.40;35.52;100547.53;5074245;28;20576;-82
2022/10/07 09:25:28;;;;;;;8.02;2.90;;;;;;;21.49;35.52;100522.81;5071769;28;20025;-82
2022/10/07 09:27:55;;;;;;;5.20;3.17;;;;;;;21.61;35.26;100527.47;5070066;28;20032;-82
2022/10/07 09:30:22;;;;;;;7.30;3.20;;;;;;;21.05;35.01;100423.75;5069184;28;20162;-82
2022/10/07 09:32:54;;;;;;;4.60;3.00;;;;;;;21.71;34.81;100508.94;5081856;28;20108;-81
2022/10/07 09:35:25;;;;;;;5.57;3.13;;;;;;;21.28;34.75;100429.25;5070569;28;20028;-81
2022/10/07 09:37:57;;;;;;;9.90;3.30;;;;;;;21.99;34.34;100506.47;5087264;28;20055;-81
2022/10/07 09:41:14;;;;;;;5.90;3.25;;;;;;;22.11;33.99;100499.28;5090919;28;20512;-81
2022/10/07 09:43:29;;;;;;;4.03;3.13;;;;;;;22.16;34.13;100493.19;5072360;28;20051;-80
2022/10/07 09:45:55;;;;;;;9.85;3.40;;;;;;;21.77;34.04;100452.38;5087112;28;20447;-81
2022/10/07 09:48:24;;;;;;;3.47;3.03;;;;;;;22.33;33.49;100485.31;5077623;28;20033;-82
2022/10/07 09:50:50;;;;;;;4.18;3.45;;;;;;;22.38;33.86;100488.13;5069810;28;20024;-81
2022/10/07 09:53:20;;;;;;;5.63;2.95;;;;;;;22.53;33.58;100485.78;5069831;28;20032;-81
2022/10/07 09:55:47;;;;;;;5.93;2.85;;;;;;;22.34;33.45;100454.66;5076762;28;20028;-81
2022/10/07 09:58:23;;;;;;;3.42;2.55;;;;;;;22.31;33.14;100436.28;5084238;28;20029;-81
2022/10/07 10:00:51;;;;;;;5.00;2.53;;;;;;;22.73;33.04;100469.28;5080390;28;20467;-81
2022/10/07 10:03:17;;;;;;;5.68;2.70;;;;;;;22.59;32.62;100431.03;5090073;28;20161;-81
2022/10/07 10:06:01;;;;;;;4.22;2.63;;;;;;;22.44;32.21;100372.28;5089845;28;20477;-81
2022/10/07 10:08:41;;;;;;;9.05;2.83;;;;;;;22.89;31.74;100417.44;5090912;28;20516;-82
2022/10/07 10:11:19;;;;;;;4.30;2.53;;;;;;;23.30;31.32;100454.13;5089698;28;20020;-81
2022/10/07 10:13:47;;;;;;;2.97;2.55;;;;;;;23.09;31.70;100396.31;5091761;28;20028;-81
2022/10/07 10:16:24;;;;;;;4.80;2.85;;;;;;;23.57;30.74;100448.19;5077332;28;20020;-79
2022/10/07 10:19:04;;;;;;;4.18;2.70;;;;;;;23.69;31.05;100441.69;5096248;28;20142;-81
2022/10/07 10:21:38;;;;;;;6.30;3.70;;;;;;;23.60;30.85;100401.88;5073692;28;20103;-81
2022/10/07 10:24:09;;;;;;;6.68;3.45;;;;;;;23.30;30.85;100340.94;5091475;28;20055;-79
2022/10/07 10:27:05;;;;;;;2.97;2.58;;;;;;;24.07;30.25;100422.13;5079826;28;20028;-79
2022/10/07 10:30:01;;;;;;;4.88;4.30;;;;;;;24.23;29.60;100422.38;5086301;28;20062;-79
2022/10/07 10:33:04;;;;;;;4.60;3.22;;;;;;;24.25;30.14;100421.06;5074553;28;20090;-82
2022/10/07 10:35:57;;;;;;;5.53;2.95;;;;;;;24.28;29.45;100409.00;5072573;28;20513;-80
2022/10/07 10:38:33;;;;;;;9.93;4.07;;;;;;;24.41;29.49;100400.53;5087860;28;20102;-80
2022/10/07 10:41:04;;;;;;;5.80;3.60;;;;;;;24.54;29.62;100400.22;5092625;28;20024;-81
2022/10/07 10:43:54;;;;;;;5.05;3.35;;;;;;;23.92;29.43;100297.81;5089358;28;20278;-81
2022/10/07 10:46:38;;;;;;;6.65;2.80;;;;;;;24.31;27.96;100314.03;5093194;28;20527;-79
2022/10/07 10:49:24;;;;;;;4.85;3.10;;;;;;;24.77;28.44;100395.66;5093256;28;20016;-79
2022/10/07 10:52:17;;;;;;;5.80;3.67;;;;;;;24.80;28.77;100377.06;5093390;28;20057;-80
2022/10/07 10:55:04;;;;;;;3.13;2.58;;;;;;;24.92;28.43;100382.34;5090955;28;20040;-79
2022/10/07 10:57:47;;;;;;;3.78;2.60;;;;;;;25.03;27.83;100365.22;5094137;28;20020;-81
2022/10/07 11:00:19;;;;;;;4.80;2.33;;;;;;;25.14;28.47;100366.94;5091463;28;20031;-81
2022/10/07 11:03:23;;;;;;;4.90;2.60;;;;;;;24.63;28.01;100290.72;5092815;28;20028;-80
2022/10/07 11:05:51;;;;;;;5.22;2.80;;;;;;;24.73;28.19;100300.81;5092659;28;20113;-80
2022/10/07 11:08:20;;;;;;;5.55;3.50;;;;;;;24.97;28.10;100329.22;5094355;28;20099;-80
2022/10/07 11:10:59;;;;;;;5.63;3.38;;;;;;;25.33;27.84;100349.34;5094311;28;20077;-81
2022/10/07 11:13:45;;;;;;;6.13;3.40;;;;;;;25.49;27.42;100344.06;5088501;28;20032;-81
2022/10/07 11:16:22;;;;;;;9.55;5.68;;;;;;;24.85;27.77;100225.84;5073542;28;20048;-79
2022/10/07 11:18:55;;;;;;;7.25;5.85;;;;;;;25.58;27.70;100326.31;5081562;28;20500;-81
2022/10/07 11:21:37;;;;;;;7.32;4.30;;;;;;;25.09;27.87;100258.81;5086358;28;20027;-82
2022/10/07 11:24:24;;;;;;;4.05;2.30;;;;;;;25.20;27.00;100325.41;5090745;28;20031;-81
2022/10/07 11:27:05;;;;;;;5.45;3.92;;;;;;;24.85;27.64;100325.00;5093535;28;20025;-80
2022/10/07 11:29:52;;;;;;;5.18;2.65;;;;;;;24.48;27.89;100290.50;5093659;28;20056;-81
2022/10/07 11:32:28;;;;;;;5.75;2.63;;;;;;;24.15;26.95;100233.91;5093291;28;20518;-80
2022/10/07 11:35:34;;;;;;;4.05;2.40;;;;;;;24.42;26.04;100269.91;5092983;28;20047;-82
2022/10/07 11:38:08;;;;;;;10.75;8.95;;;;;;;24.59;26.71;100296.88;5091653;28;20228;-79
2022/10/07 11:40:44;;;;;;;3.63;2.15;;;;;;;23.99;25.71;100190.56;5092332;28;20028;-80
2022/10/07 11:43:24;;;;;;;4.93;2.08;;;;;;;24.06;26.82;100193.88;5091888;28;20020;-81
2022/10/07 11:45:55;;;;;;;7.35;3.88;;;;;;;24.25;27.12;100229.47;5091100;28;20469;-80
2022/10/07 11:48:29;;;;;;;2.47;1.80;;;;;;;24.22;26.24;100239.94;5091465;28;20047;-79